Terminal Aerodrome Forecast
Issued by NWS

Home | Current Version | Previous Version | Text Only | Print | Product List | Glossary On
Versions: 1 2 3 4 5 6 7 8 9 10 11 12 13 14 15 16 17 18 19 20 21 22 23 24 25
000
FTUS43 KBIS 050529
TAFJMS
TAF
KJMS 050529Z 0506/0606 17006KT P6SM BKN200
     FM051600 24007KT P6SM VCSH OVC035
     FM051800 29012KT P6SM VCSH OVC015
     FM052100 29018G28KT 2SM -SN BKN008
     FM060300 30020G29KT P6SM OVC010=

USA.gov is the U.S. government's official web portal to all federal, state and local government web resources and services.